sensor_id;sensor_type;location;lat;lon;timestamp;P1;durP1;ratioP1;P2;durP2;ratioP2
1296;SDS011;641;48.492;9.184;2022-09-09T00:00:12;6.90;;;1.20;;
1296;SDS011;641;48.492;9.184;2022-09-09T00:02:40;6.90;;;1.20;;
1296;SDS011;641;48.492;9.184;2022-09-09T00:11:27;8.30;;;1.20;;
1296;SDS011;641;48.492;9.184;2022-09-09T00:17:12;7.27;;;1.63;;
1296;SDS011;641;48.492;9.184;2022-09-09T00:20:01;7.67;;;1.13;;
1296;SDS011;641;48.492;9.184;2022-09-09T00:22:36;9.50;;;1.67;;
1296;SDS011;641;48.492;9.184;2022-09-09T00:25:17;8.93;;;1.30;;
1296;SDS011;641;48.492;9.184;2022-09-09T00:27:52;7.30;;;1.20;;
1296;SDS011;641;48.492;9.184;2022-09-09T00:33:33;9.33;;;1.50;;
1296;SDS011;641;48.492;9.184;2022-09-09T00:35:37;8.57;;;1.50;;
1296;SDS011;641;48.492;9.184;2022-09-09T00:38:13;8.50;;;1.93;;
1296;SDS011;641;48.492;9.184;2022-09-09T00:43:40;8.63;;;1.23;;
1296;SDS011;641;48.492;9.184;2022-09-09T00:46:21;6.87;;;1.40;;
1296;SDS011;641;48.492;9.184;2022-09-09T00:48:56;6.50;;;1.17;;
1296;SDS011;641;48.492;9.184;2022-09-09T01:06:12;9.90;;;1.57;;
1296;SDS011;641;48.492;9.184;2022-09-09T01:17:09;9.87;;;2.07;;
1296;SDS011;641;48.492;9.184;2022-09-09T01:22:11;6.87;;;1.47;;
1296;SDS011;641;48.492;9.184;2022-09-09T01:24:54;9.43;;;1.50;;
1296;SDS011;641;48.492;9.184;2022-09-09T01:27:44;7.00;;;1.50;;
1296;SDS011;641;48.492;9.184;2022-09-09T01:30:13;17.03;;;1.90;;
1296;SDS011;641;48.492;9.184;2022-09-09T01:32:45;7.10;;;1.20;;
1296;SDS011;641;48.492;9.184;2022-09-09T01:35:27;8.93;;;1.70;;
1296;SDS011;641;48.492;9.184;2022-09-09T01:38:13;10.73;;;1.83;;
1296;SDS011;641;48.492;9.184;2022-09-09T01:40:39;7.60;;;1.67;;
1296;SDS011;641;48.492;9.184;2022-09-09T01:43:05;10.30;;;1.43;;
1296;SDS011;641;48.492;9.184;2022-09-09T01:45:32;11.93;;;1.63;;
1296;SDS011;641;48.492;9.184;2022-09-09T01:47:59;7.10;;;1.60;;
1296;SDS011;641;48.492;9.184;2022-09-09T01:50:25;11.23;;;2.00;;
1296;SDS011;641;48.492;9.184;2022-09-09T01:52:56;8.30;;;2.37;;
1296;SDS011;641;48.492;9.184;2022-09-09T01:55:29;9.57;;;1.70;;
1296;SDS011;641;48.492;9.184;2022-09-09T01:58:09;7.20;;;1.87;;
1296;SDS011;641;48.492;9.184;2022-09-09T02:03:57;7.30;;;1.43;;
1296;SDS011;641;48.492;9.184;2022-09-09T02:06:32;9.13;;;1.67;;
1296;SDS011;641;48.492;9.184;2022-09-09T02:09:01;7.43;;;1.80;;
1296;SDS011;641;48.492;9.184;2022-09-09T02:11:30;7.80;;;1.70;;
1296;SDS011;641;48.492;9.184;2022-09-09T02:13:57;8.33;;;1.53;;
1296;SDS011;641;48.492;9.184;2022-09-09T02:19:09;9.50;;;1.50;;
1296;SDS011;641;48.492;9.184;2022-09-09T02:21:49;11.63;;;1.90;;
1296;SDS011;641;48.492;9.184;2022-09-09T02:24:18;7.10;;;1.47;;
1296;SDS011;641;48.492;9.184;2022-09-09T02:26:44;8.77;;;2.10;;
1296;SDS011;641;48.492;9.184;2022-09-09T02:29:14;6.97;;;1.27;;
1296;SDS011;641;48.492;9.184;2022-09-09T02:31:44;6.60;;;1.60;;
1296;SDS011;641;48.492;9.184;2022-09-09T02:34:12;8.50;;;1.90;;
1296;SDS011;641;48.492;9.184;2022-09-09T02:36:41;7.47;;;1.60;;
1296;SDS011;641;48.492;9.184;2022-09-09T02:39:10;7.00;;;1.23;;
1296;SDS011;641;48.492;9.184;2022-09-09T02:41:37;5.80;;;1.13;;
1296;SDS011;641;48.492;9.184;2022-09-09T02:44:05;7.23;;;1.30;;
1296;SDS011;641;48.492;9.184;2022-09-09T02:52:04;8.50;;;1.47;;
1296;SDS011;641;48.492;9.184;2022-09-09T02:54:33;6.30;;;1.10;;
1296;SDS011;641;48.492;9.184;2022-09-09T02:57:06;10.17;;;1.20;;
1296;SDS011;641;48.492;9.184;2022-09-09T02:59:36;6.50;;;1.10;;
1296;SDS011;641;48.492;9.184;2022-09-09T03:02:02;7.97;;;1.57;;
1296;SDS011;641;48.492;9.184;2022-09-09T03:04:28;6.30;;;1.10;;
1296;SDS011;641;48.492;9.184;2022-09-09T03:06:55;10.70;;;1.50;;
1296;SDS011;641;48.492;9.184;2022-09-09T03:09:21;6.03;;;1.17;;
1296;SDS011;641;48.492;9.184;2022-09-09T03:11:46;7.30;;;1.30;;
1296;SDS011;641;48.492;9.184;2022-09-09T03:14:12;8.70;;;1.50;;
1296;SDS011;641;48.492;9.184;2022-09-09T03:16:37;8.97;;;1.37;;
1296;SDS011;641;48.492;9.184;2022-09-09T03:19:03;8.87;;;1.50;;
1296;SDS011;641;48.492;9.184;2022-09-09T03:21:29;6.33;;;1.53;;
1296;SDS011;641;48.492;9.184;2022-09-09T03:23:56;7.40;;;1.30;;
1296;SDS011;641;48.492;9.184;2022-09-09T03:26:22;8.57;;;1.37;;
1296;SDS011;641;48.492;9.184;2022-09-09T03:28:47;7.30;;;1.50;;
1296;SDS011;641;48.492;9.184;2022-09-09T03:31:14;7.13;;;1.30;;
1296;SDS011;641;48.492;9.184;2022-09-09T03:33:40;7.73;;;1.70;;
1296;SDS011;641;48.492;9.184;2022-09-09T03:36:08;7.20;;;1.37;;
1296;SDS011;641;48.492;9.184;2022-09-09T03:38:35;8.33;;;1.40;;
1296;SDS011;641;48.492;9.184;2022-09-09T03:41:01;8.20;;;1.20;;
1296;SDS011;641;48.492;9.184;2022-09-09T03:43:27;7.57;;;0.90;;
1296;SDS011;641;48.492;9.184;2022-09-09T03:45:54;7.37;;;1.33;;
1296;SDS011;641;48.492;9.184;2022-09-09T03:48:23;9.00;;;1.40;;
1296;SDS011;641;48.492;9.184;2022-09-09T03:50:50;13.80;;;1.87;;
1296;SDS011;641;48.492;9.184;2022-09-09T03:53:18;8.93;;;1.47;;
1296;SDS011;641;48.492;9.184;2022-09-09T03:55:47;7.20;;;1.40;;
1296;SDS011;641;48.492;9.184;2022-09-09T03:58:15;9.23;;;2.00;;
1296;SDS011;641;48.492;9.184;2022-09-09T04:00:43;7.07;;;1.33;;
1296;SDS011;641;48.492;9.184;2022-09-09T04:03:18;15.17;;;1.90;;
1296;SDS011;641;48.492;9.184;2022-09-09T04:05:43;7.70;;;1.80;;
1296;SDS011;641;48.492;9.184;2022-09-09T04:08:09;9.70;;;2.00;;
1296;SDS011;641;48.492;9.184;2022-09-09T04:10:35;8.10;;;2.00;;
1296;SDS011;641;48.492;9.184;2022-09-09T04:13:03;8.00;;;1.77;;
1296;SDS011;641;48.492;9.184;2022-09-09T04:15:30;8.57;;;1.67;;
1296;SDS011;641;48.492;9.184;2022-09-09T04:17:56;8.03;;;2.13;;
1296;SDS011;641;48.492;9.184;2022-09-09T04:20:21;8.93;;;2.40;;
1296;SDS011;641;48.492;9.184;2022-09-09T04:22:47;6.90;;;2.10;;
1296;SDS011;641;48.492;9.184;2022-09-09T04:25:13;8.10;;;2.50;;
1296;SDS011;641;48.492;9.184;2022-09-09T04:27:39;10.00;;;2.13;;
1296;SDS011;641;48.492;9.184;2022-09-09T04:30:05;8.33;;;1.73;;
1296;SDS011;641;48.492;9.184;2022-09-09T04:32:36;8.10;;;1.90;;
1296;SDS011;641;48.492;9.184;2022-09-09T04:35:02;7.80;;;1.70;;
1296;SDS011;641;48.492;9.184;2022-09-09T04:37:28;9.77;;;1.83;;
1296;SDS011;641;48.492;9.184;2022-09-09T04:39:53;10.40;;;1.47;;
1296;SDS011;641;48.492;9.184;2022-09-09T04:42:19;10.43;;;1.90;;
1296;SDS011;641;48.492;9.184;2022-09-09T04:44:44;8.57;;;1.60;;
1296;SDS011;641;48.492;9.184;2022-09-09T04:47:10;9.80;;;1.40;;
1296;SDS011;641;48.492;9.184;2022-09-09T04:49:36;8.00;;;1.70;;
1296;SDS011;641;48.492;9.184;2022-09-09T04:52:03;7.10;;;1.73;;
1296;SDS011;641;48.492;9.184;2022-09-09T04:54:29;11.33;;;1.67;;
1296;SDS011;641;48.492;9.184;2022-09-09T04:56:54;7.53;;;1.40;;
1296;SDS011;641;48.492;9.184;2022-09-09T04:59:20;6.33;;;1.30;;
1296;SDS011;641;48.492;9.184;2022-09-09T05:01:46;8.67;;;2.63;;
1296;SDS011;641;48.492;9.184;2022-09-09T05:04:13;6.70;;;1.60;;
1296;SDS011;641;48.492;9.184;2022-09-09T05:06:40;7.43;;;1.63;;
1296;SDS011;641;48.492;9.184;2022-09-09T05:09:06;7.87;;;1.70;;
1296;SDS011;641;48.492;9.184;2022-09-09T05:11:32;7.63;;;1.20;;
1296;SDS011;641;48.492;9.184;2022-09-09T05:14:00;7.50;;;1.33;;
1296;SDS011;641;48.492;9.184;2022-09-09T05:16:26;9.70;;;1.63;;
1296;SDS011;641;48.492;9.184;2022-09-09T05:18:52;7.53;;;1.63;;
1296;SDS011;641;48.492;9.184;2022-09-09T05:21:19;6.60;;;1.13;;
1296;SDS011;641;48.492;9.184;2022-09-09T05:23:46;6.43;;;1.37;;
1296;SDS011;641;48.492;9.184;2022-09-09T05:26:13;11.00;;;1.63;;
1296;SDS011;641;48.492;9.184;2022-09-09T05:28:40;7.60;;;1.50;;
1296;SDS011;641;48.492;9.184;2022-09-09T05:31:07;8.83;;;1.67;;
1296;SDS011;641;48.492;9.184;2022-09-09T05:33:34;8.63;;;1.40;;
1296;SDS011;641;48.492;9.184;2022-09-09T05:36:10;10.57;;;1.40;;
1296;SDS011;641;48.492;9.184;2022-09-09T05:38:41;7.13;;;1.80;;
1296;SDS011;641;48.492;9.184;2022-09-09T05:41:07;8.27;;;1.30;;
1296;SDS011;641;48.492;9.184;2022-09-09T05:43:35;12.73;;;2.20;;
1296;SDS011;641;48.492;9.184;2022-09-09T05:48:33;8.00;;;1.00;;
1296;SDS011;641;48.492;9.184;2022-09-09T05:51:00;6.13;;;1.30;;
1296;SDS011;641;48.492;9.184;2022-09-09T05:53:26;8.07;;;1.37;;
1296;SDS011;641;48.492;9.184;2022-09-09T05:56:08;7.63;;;1.50;;
1296;SDS011;641;48.492;9.184;2022-09-09T05:58:35;7.93;;;1.40;;
1296;SDS011;641;48.492;9.184;2022-09-09T06:03:41;6.43;;;1.27;;
1296;SDS011;641;48.492;9.184;2022-09-09T06:06:09;8.40;;;1.53;;
1296;SDS011;641;48.492;9.184;2022-09-09T06:08:39;6.57;;;1.37;;
1296;SDS011;641;48.492;9.184;2022-09-09T06:11:08;8.43;;;1.10;;
1296;SDS011;641;48.492;9.184;2022-09-09T06:13:39;10.13;;;1.70;;
1296;SDS011;641;48.492;9.184;2022-09-09T06:16:08;9.37;;;2.23;;
1296;SDS011;641;48.492;9.184;2022-09-09T06:18:40;6.90;;;1.40;;
1296;SDS011;641;48.492;9.184;2022-09-09T06:21:07;6.20;;;1.43;;
1296;SDS011;641;48.492;9.184;2022-09-09T06:23:36;8.27;;;1.80;;
1296;SDS011;641;48.492;9.184;2022-09-09T06:26:15;7.43;;;1.70;;
1296;SDS011;641;48.492;9.184;2022-09-09T06:28:52;6.90;;;1.27;;
1296;SDS011;641;48.492;9.184;2022-09-09T06:31:20;9.27;;;1.87;;
1296;SDS011;641;48.492;9.184;2022-09-09T06:33:47;6.60;;;1.47;;
1296;SDS011;641;48.492;9.184;2022-09-09T06:36:15;12.67;;;2.03;;
1296;SDS011;641;48.492;9.184;2022-09-09T06:38:46;9.20;;;1.70;;
1296;SDS011;641;48.492;9.184;2022-09-09T06:41:13;7.37;;;1.57;;
1296;SDS011;641;48.492;9.184;2022-09-09T06:43:41;6.73;;;1.43;;
1296;SDS011;641;48.492;9.184;2022-09-09T06:46:08;7.10;;;1.27;;
1296;SDS011;641;48.492;9.184;2022-09-09T06:48:36;12.43;;;1.90;;
1296;SDS011;641;48.492;9.184;2022-09-09T06:51:13;7.90;;;2.13;;
1296;SDS011;641;48.492;9.184;2022-09-09T06:53:41;11.20;;;2.13;;
1296;SDS011;641;48.492;9.184;2022-09-09T06:58:42;10.43;;;1.83;;
1296;SDS011;641;48.492;9.184;2022-09-09T07:01:09;25.77;;;2.87;;
1296;SDS011;641;48.492;9.184;2022-09-09T07:03:37;6.20;;;1.30;;
1296;SDS011;641;48.492;9.184;2022-09-09T07:06:04;7.50;;;1.63;;
1296;SDS011;641;48.492;9.184;2022-09-09T07:08:30;7.50;;;1.80;;
1296;SDS011;641;48.492;9.184;2022-09-09T07:11:03;8.17;;;1.40;;
1296;SDS011;641;48.492;9.184;2022-09-09T07:13:32;9.00;;;1.70;;
1296;SDS011;641;48.492;9.184;2022-09-09T07:16:09;7.53;;;1.50;;
1296;SDS011;641;48.492;9.184;2022-09-09T07:18:36;7.80;;;1.50;;
1296;SDS011;641;48.492;9.184;2022-09-09T07:21:02;6.40;;;1.23;;
1296;SDS011;641;48.492;9.184;2022-09-09T07:23:29;8.60;;;1.37;;
1296;SDS011;641;48.492;9.184;2022-09-09T07:25:55;8.73;;;1.83;;
1296;SDS011;641;48.492;9.184;2022-09-09T07:28:21;10.33;;;1.47;;
1296;SDS011;641;48.492;9.184;2022-09-09T07:30:57;8.90;;;1.50;;
1296;SDS011;641;48.492;9.184;2022-09-09T07:33:24;9.43;;;1.60;;
1296;SDS011;641;48.492;9.184;2022-09-09T07:35:50;7.40;;;1.27;;
1296;SDS011;641;48.492;9.184;2022-09-09T07:38:17;9.20;;;1.93;;
1296;SDS011;641;48.492;9.184;2022-09-09T07:40:45;6.27;;;1.47;;
1296;SDS011;641;48.492;9.184;2022-09-09T07:43:11;6.83;;;1.33;;
1296;SDS011;641;48.492;9.184;2022-09-09T07:45:37;9.93;;;1.47;;
1296;SDS011;641;48.492;9.184;2022-09-09T07:48:02;10.13;;;1.60;;
1296;SDS011;641;48.492;9.184;2022-09-09T07:50:29;7.17;;;1.60;;
1296;SDS011;641;48.492;9.184;2022-09-09T07:52:55;8.87;;;1.57;;
1296;SDS011;641;48.492;9.184;2022-09-09T07:55:21;6.83;;;1.20;;
1296;SDS011;641;48.492;9.184;2022-09-09T07:57:50;8.53;;;1.63;;
1296;SDS011;641;48.492;9.184;2022-09-09T08:00:16;9.90;;;1.67;;
1296;SDS011;641;48.492;9.184;2022-09-09T08:02:43;8.43;;;1.43;;
1296;SDS011;641;48.492;9.184;2022-09-09T08:05:09;7.93;;;1.20;;
1296;SDS011;641;48.492;9.184;2022-09-09T08:07:34;8.87;;;1.50;;
1296;SDS011;641;48.492;9.184;2022-09-09T08:10:00;9.37;;;1.57;;
1296;SDS011;641;48.492;9.184;2022-09-09T08:12:26;8.83;;;1.40;;
1296;SDS011;641;48.492;9.184;2022-09-09T08:14:52;8.60;;;1.77;;
1296;SDS011;641;48.492;9.184;2022-09-09T08:17:19;8.50;;;1.27;;
1296;SDS011;641;48.492;9.184;2022-09-09T08:19:44;9.73;;;1.50;;
1296;SDS011;641;48.492;9.184;2022-09-09T08:22:10;7.70;;;1.30;;
1296;SDS011;641;48.492;9.184;2022-09-09T08:24:36;8.20;;;1.13;;
1296;SDS011;641;48.492;9.184;2022-09-09T08:27:01;10.03;;;1.40;;
1296;SDS011;641;48.492;9.184;2022-09-09T08:29:27;7.63;;;1.40;;
1296;SDS011;641;48.492;9.184;2022-09-09T08:31:54;13.47;;;1.80;;
1296;SDS011;641;48.492;9.184;2022-09-09T08:34:22;8.40;;;1.87;;
1296;SDS011;641;48.492;9.184;2022-09-09T08:36:49;7.77;;;1.07;;
1296;SDS011;641;48.492;9.184;2022-09-09T08:39:17;8.33;;;1.40;;
1296;SDS011;641;48.492;9.184;2022-09-09T08:52:54;7.43;;;1.10;;
1296;SDS011;641;48.492;9.184;2022-09-09T08:55:37;8.20;;;1.10;;
1296;SDS011;641;48.492;9.184;2022-09-09T09:00:47;10.50;;;1.53;;
1296;SDS011;641;48.492;9.184;2022-09-09T09:03:26;10.33;;;1.53;;
1296;SDS011;641;48.492;9.184;2022-09-09T09:11:24;8.70;;;1.10;;
1296;SDS011;641;48.492;9.184;2022-09-09T09:13:52;8.40;;;1.00;;
1296;SDS011;641;48.492;9.184;2022-09-09T09:16:33;6.40;;;1.00;;
1296;SDS011;641;48.492;9.184;2022-09-09T09:19:03;7.77;;;1.00;;
1296;SDS011;641;48.492;9.184;2022-09-09T09:21:38;6.43;;;0.80;;
1296;SDS011;641;48.492;9.184;2022-09-09T09:24:18;8.67;;;0.90;;
1296;SDS011;641;48.492;9.184;2022-09-09T09:26:44;7.30;;;0.97;;
1296;SDS011;641;48.492;9.184;2022-09-09T09:29:11;7.13;;;1.33;;
1296;SDS011;641;48.492;9.184;2022-09-09T09:31:41;7.20;;;1.00;;
1296;SDS011;641;48.492;9.184;2022-09-09T09:34:13;6.27;;;0.77;;
1296;SDS011;641;48.492;9.184;2022-09-09T09:36:40;7.83;;;0.90;;
1296;SDS011;641;48.492;9.184;2022-09-09T09:39:09;7.90;;;0.97;;
1296;SDS011;641;48.492;9.184;2022-09-09T09:41:36;7.30;;;1.00;;
1296;SDS011;641;48.492;9.184;2022-09-09T09:44:05;12.67;;;2.73;;
1296;SDS011;641;48.492;9.184;2022-09-09T09:46:44;6.93;;;0.90;;
1296;SDS011;641;48.492;9.184;2022-09-09T09:49:10;6.67;;;1.00;;
1296;SDS011;641;48.492;9.184;2022-09-09T09:51:35;9.10;;;1.20;;
1296;SDS011;641;48.492;9.184;2022-09-09T09:56:43;8.23;;;1.30;;
1296;SDS011;641;48.492;9.184;2022-09-09T09:59:19;11.90;;;1.47;;
1296;SDS011;641;48.492;9.184;2022-09-09T10:01:45;7.30;;;0.90;;
1296;SDS011;641;48.492;9.184;2022-09-09T10:04:15;9.47;;;1.33;;
1296;SDS011;641;48.492;9.184;2022-09-09T10:06:44;6.30;;;0.90;;
1296;SDS011;641;48.492;9.184;2022-09-09T10:14:50;7.50;;;1.40;;
1296;SDS011;641;48.492;9.184;2022-09-09T10:23:15;8.37;;;1.30;;
1296;SDS011;641;48.492;9.184;2022-09-09T10:34:55;11.57;;;1.10;;
1296;SDS011;641;48.492;9.184;2022-09-09T10:37:30;7.67;;;1.20;;
1296;SDS011;641;48.492;9.184;2022-09-09T10:40:20;14.30;;;1.20;;
1296;SDS011;641;48.492;9.184;2022-09-09T10:43:07;9.70;;;1.27;;
1296;SDS011;641;48.492;9.184;2022-09-09T10:45:47;7.43;;;0.80;;
1296;SDS011;641;48.492;9.184;2022-09-09T10:48:36;6.30;;;0.90;;
1296;SDS011;641;48.492;9.184;2022-09-09T10:51:22;7.93;;;1.00;;
1296;SDS011;641;48.492;9.184;2022-09-09T10:54:11;6.97;;;0.90;;
1296;SDS011;641;48.492;9.184;2022-09-09T10:57:01;6.00;;;0.70;;
1296;SDS011;641;48.492;9.184;2022-09-09T10:59:43;6.10;;;0.93;;
1296;SDS011;641;48.492;9.184;2022-09-09T11:02:22;7.23;;;0.90;;
1296;SDS011;641;48.492;9.184;2022-09-09T11:04:56;7.10;;;1.03;;
1296;SDS011;641;48.492;9.184;2022-09-09T11:07:33;5.73;;;0.70;;
1296;SDS011;641;48.492;9.184;2022-09-09T11:10:04;6.90;;;0.77;;
1296;SDS011;641;48.492;9.184;2022-09-09T11:12:38;7.50;;;1.00;;
1296;SDS011;641;48.492;9.184;2022-09-09T11:15:31;6.63;;;0.80;;
1296;SDS011;641;48.492;9.184;2022-09-09T11:18:01;6.87;;;0.87;;
1296;SDS011;641;48.492;9.184;2022-09-09T11:20:29;6.17;;;0.80;;
1296;SDS011;641;48.492;9.184;2022-09-09T11:23:04;13.30;;;1.20;;
1296;SDS011;641;48.492;9.184;2022-09-09T11:25:37;7.23;;;0.90;;
1296;SDS011;641;48.492;9.184;2022-09-09T11:40:31;8.73;;;0.83;;
1296;SDS011;641;48.492;9.184;2022-09-09T11:43:31;9.33;;;1.10;;
1296;SDS011;641;48.492;9.184;2022-09-09T11:45:56;7.93;;;0.77;;
1296;SDS011;641;48.492;9.184;2022-09-09T11:53:58;7.67;;;0.80;;
1296;SDS011;641;48.492;9.184;2022-09-09T11:58:57;5.70;;;0.60;;
1296;SDS011;641;48.492;9.184;2022-09-09T12:01:29;7.50;;;0.83;;
1296;SDS011;641;48.492;9.184;2022-09-09T12:04:02;5.70;;;0.50;;
1296;SDS011;641;48.492;9.184;2022-09-09T12:06:41;11.17;;;1.27;;
1296;SDS011;641;48.492;9.184;2022-09-09T12:11:52;7.30;;;0.70;;
1296;SDS011;641;48.492;9.184;2022-09-09T12:19:41;8.13;;;1.40;;
1296;SDS011;641;48.492;9.184;2022-09-09T12:22:23;6.50;;;0.70;;
1296;SDS011;641;48.492;9.184;2022-09-09T12:25:20;8.73;;;1.33;;
1296;SDS011;641;48.492;9.184;2022-09-09T12:28:01;5.80;;;0.70;;
1296;SDS011;641;48.492;9.184;2022-09-09T12:30:49;7.30;;;0.90;;
1296;SDS011;641;48.492;9.184;2022-09-09T12:33:24;9.50;;;1.03;;
1296;SDS011;641;48.492;9.184;2022-09-09T12:35:52;9.37;;;1.00;;
1296;SDS011;641;48.492;9.184;2022-09-09T12:38:29;6.20;;;0.80;;
1296;SDS011;641;48.492;9.184;2022-09-09T12:40:58;7.93;;;1.77;;
1296;SDS011;641;48.492;9.184;2022-09-09T12:43:25;7.30;;;1.43;;
1296;SDS011;641;48.492;9.184;2022-09-09T12:45:57;7.07;;;0.90;;
1296;SDS011;641;48.492;9.184;2022-09-09T12:48:30;8.00;;;1.33;;
1296;SDS011;641;48.492;9.184;2022-09-09T12:51:01;6.70;;;0.63;;
1296;SDS011;641;48.492;9.184;2022-09-09T12:53:31;8.20;;;0.90;;
1296;SDS011;641;48.492;9.184;2022-09-09T12:56:08;8.60;;;0.87;;
1296;SDS011;641;48.492;9.184;2022-09-09T12:58:44;8.47;;;1.10;;
1296;SDS011;641;48.492;9.184;2022-09-09T13:01:18;6.77;;;0.70;;
1296;SDS011;641;48.492;9.184;2022-09-09T13:03:54;7.40;;;0.97;;
1296;SDS011;641;48.492;9.184;2022-09-09T13:06:24;6.77;;;0.80;;
1296;SDS011;641;48.492;9.184;2022-09-09T13:08:54;8.03;;;1.07;;
1296;SDS011;641;48.492;9.184;2022-09-09T13:11:23;8.93;;;0.73;;
1296;SDS011;641;48.492;9.184;2022-09-09T13:14:13;7.17;;;0.80;;
1296;SDS011;641;48.492;9.184;2022-09-09T13:16:54;8.57;;;1.10;;
1296;SDS011;641;48.492;9.184;2022-09-09T13:19:23;5.90;;;0.67;;
1296;SDS011;641;48.492;9.184;2022-09-09T13:21:52;7.30;;;0.90;;
1296;SDS011;641;48.492;9.184;2022-09-09T13:24:26;8.93;;;0.63;;
1296;SDS011;641;48.492;9.184;2022-09-09T13:26:58;8.73;;;1.50;;
1296;SDS011;641;48.492;9.184;2022-09-09T13:29:28;7.90;;;1.10;;
1296;SDS011;641;48.492;9.184;2022-09-09T13:32:03;8.40;;;0.80;;
1296;SDS011;641;48.492;9.184;2022-09-09T13:34:40;9.20;;;1.07;;
1296;SDS011;641;48.492;9.184;2022-09-09T13:37:28;11.93;;;3.07;;
1296;SDS011;641;48.492;9.184;2022-09-09T13:40:04;7.40;;;1.37;;
1296;SDS011;641;48.492;9.184;2022-09-09T13:42:32;7.77;;;0.90;;
1296;SDS011;641;48.492;9.184;2022-09-09T13:45:14;7.50;;;0.70;;
1296;SDS011;641;48.492;9.184;2022-09-09T13:47:45;6.60;;;0.80;;
1296;SDS011;641;48.492;9.184;2022-09-09T13:52:49;8.60;;;0.80;;
1296;SDS011;641;48.492;9.184;2022-09-09T13:55:18;6.50;;;0.80;;
1296;SDS011;641;48.492;9.184;2022-09-09T13:57:50;8.30;;;0.80;;
1296;SDS011;641;48.492;9.184;2022-09-09T14:00:24;7.50;;;0.80;;
1296;SDS011;641;48.492;9.184;2022-09-09T14:02:50;6.50;;;0.83;;
1296;SDS011;641;48.492;9.184;2022-09-09T14:05:17;7.60;;;0.93;;
1296;SDS011;641;48.492;9.184;2022-09-09T14:07:43;6.43;;;0.60;;
1296;SDS011;641;48.492;9.184;2022-09-09T14:10:10;6.33;;;0.80;;
1296;SDS011;641;48.492;9.184;2022-09-09T14:12:36;7.30;;;0.73;;
1296;SDS011;641;48.492;9.184;2022-09-09T14:15:03;6.80;;;0.80;;
1296;SDS011;641;48.492;9.184;2022-09-09T14:17:30;7.43;;;1.00;;
1296;SDS011;641;48.492;9.184;2022-09-09T14:19:56;6.47;;;0.70;;
1296;SDS011;641;48.492;9.184;2022-09-09T14:22:22;9.20;;;1.20;;
1296;SDS011;641;48.492;9.184;2022-09-09T14:24:49;7.70;;;1.10;;
1296;SDS011;641;48.492;9.184;2022-09-09T14:27:16;7.70;;;0.80;;
1296;SDS011;641;48.492;9.184;2022-09-09T14:29:42;7.37;;;0.90;;
1296;SDS011;641;48.492;9.184;2022-09-09T14:32:09;6.73;;;0.70;;
1296;SDS011;641;48.492;9.184;2022-09-09T14:34:35;9.40;;;1.20;;
1296;SDS011;641;48.492;9.184;2022-09-09T14:37:01;9.50;;;0.97;;
1296;SDS011;641;48.492;9.184;2022-09-09T14:39:27;6.50;;;0.60;;
1296;SDS011;641;48.492;9.184;2022-09-09T14:41:52;9.83;;;0.80;;
1296;SDS011;641;48.492;9.184;2022-09-09T14:44:18;6.47;;;0.67;;
1296;SDS011;641;48.492;9.184;2022-09-09T14:46:44;7.50;;;1.00;;
1296;SDS011;641;48.492;9.184;2022-09-09T14:49:09;6.97;;;0.70;;
1296;SDS011;641;48.492;9.184;2022-09-09T14:51:35;8.33;;;0.73;;
1296;SDS011;641;48.492;9.184;2022-09-09T14:54:02;6.90;;;0.60;;
1296;SDS011;641;48.492;9.184;2022-09-09T14:56:28;6.90;;;0.80;;
1296;SDS011;641;48.492;9.184;2022-09-09T14:58:56;6.60;;;0.70;;
1296;SDS011;641;48.492;9.184;2022-09-09T15:01:24;8.13;;;0.87;;
1296;SDS011;641;48.492;9.184;2022-09-09T15:03:58;8.27;;;0.70;;
1296;SDS011;641;48.492;9.184;2022-09-09T15:06:26;5.80;;;0.53;;
1296;SDS011;641;48.492;9.184;2022-09-09T15:08:54;6.60;;;0.73;;
1296;SDS011;641;48.492;9.184;2022-09-09T15:11:22;6.50;;;0.87;;
1296;SDS011;641;48.492;9.184;2022-09-09T15:13:50;7.37;;;0.70;;
1296;SDS011;641;48.492;9.184;2022-09-09T15:16:20;7.83;;;0.97;;
1296;SDS011;641;48.492;9.184;2022-09-09T15:18:49;6.80;;;0.97;;
1296;SDS011;641;48.492;9.184;2022-09-09T15:21:18;10.23;;;1.17;;
1296;SDS011;641;48.492;9.184;2022-09-09T15:23:46;6.87;;;0.80;;
1296;SDS011;641;48.492;9.184;2022-09-09T15:26:13;8.07;;;0.80;;
1296;SDS011;641;48.492;9.184;2022-09-09T15:28:41;7.97;;;0.80;;
1296;SDS011;641;48.492;9.184;2022-09-09T15:31:21;8.80;;;0.90;;
1296;SDS011;641;48.492;9.184;2022-09-09T15:34:03;6.53;;;0.70;;
1296;SDS011;641;48.492;9.184;2022-09-09T15:36:32;7.03;;;1.37;;
1296;SDS011;641;48.492;9.184;2022-09-09T15:39:01;6.17;;;0.70;;
1296;SDS011;641;48.492;9.184;2022-09-09T15:41:29;6.27;;;1.03;;
1296;SDS011;641;48.492;9.184;2022-09-09T15:43:56;6.10;;;0.63;;
1296;SDS011;641;48.492;9.184;2022-09-09T15:46:32;7.03;;;0.90;;
1296;SDS011;641;48.492;9.184;2022-09-09T15:49:13;6.80;;;0.80;;
1296;SDS011;641;48.492;9.184;2022-09-09T15:51:41;7.00;;;0.90;;
1296;SDS011;641;48.492;9.184;2022-09-09T15:54:09;7.60;;;0.60;;
1296;SDS011;641;48.492;9.184;2022-09-09T15:56:41;6.70;;;0.50;;
1296;SDS011;641;48.492;9.184;2022-09-09T15:59:07;5.97;;;0.50;;
1296;SDS011;641;48.492;9.184;2022-09-09T16:01:34;5.60;;;0.57;;
1296;SDS011;641;48.492;9.184;2022-09-09T16:04:00;5.47;;;0.43;;
1296;SDS011;641;48.492;9.184;2022-09-09T16:06:27;5.60;;;0.50;;
1296;SDS011;641;48.492;9.184;2022-09-09T16:08:54;5.70;;;0.50;;
1296;SDS011;641;48.492;9.184;2022-09-09T16:11:22;5.73;;;0.50;;
1296;SDS011;641;48.492;9.184;2022-09-09T16:13:54;5.37;;;0.40;;
1296;SDS011;641;48.492;9.184;2022-09-09T16:16:21;5.80;;;0.50;;
1296;SDS011;641;48.492;9.184;2022-09-09T16:18:50;5.50;;;0.40;;
1296;SDS011;641;48.492;9.184;2022-09-09T16:21:19;6.03;;;0.40;;
1296;SDS011;641;48.492;9.184;2022-09-09T16:23:50;5.30;;;0.40;;
1296;SDS011;641;48.492;9.184;2022-09-09T16:26:18;6.57;;;0.40;;
1296;SDS011;641;48.492;9.184;2022-09-09T16:28:44;6.20;;;0.60;;
1296;SDS011;641;48.492;9.184;2022-09-09T16:31:13;5.93;;;0.43;;
1296;SDS011;641;48.492;9.184;2022-09-09T16:33:44;6.10;;;0.53;;
1296;SDS011;641;48.492;9.184;2022-09-09T16:36:21;6.57;;;0.97;;
1296;SDS011;641;48.492;9.184;2022-09-09T16:38:53;6.07;;;0.50;;
1296;SDS011;641;48.492;9.184;2022-09-09T16:41:22;6.07;;;0.60;;
1296;SDS011;641;48.492;9.184;2022-09-09T16:43:52;6.37;;;0.73;;
1296;SDS011;641;48.492;9.184;2022-09-09T16:46:19;6.00;;;0.77;;
1296;SDS011;641;48.492;9.184;2022-09-09T16:48:47;7.00;;;1.67;;
1296;SDS011;641;48.492;9.184;2022-09-09T16:51:28;8.87;;;0.83;;
1296;SDS011;641;48.492;9.184;2022-09-09T16:53:57;7.30;;;0.80;;
1296;SDS011;641;48.492;9.184;2022-09-09T16:56:25;9.47;;;1.07;;
1296;SDS011;641;48.492;9.184;2022-09-09T16:58:53;8.00;;;0.63;;
1296;SDS011;641;48.492;9.184;2022-09-09T17:01:20;5.53;;;0.60;;
1296;SDS011;641;48.492;9.184;2022-09-09T17:03:51;7.43;;;0.60;;
1296;SDS011;641;48.492;9.184;2022-09-09T17:06:20;11.10;;;0.83;;
1296;SDS011;641;48.492;9.184;2022-09-09T17:08:47;6.93;;;0.80;;
1296;SDS011;641;48.492;9.184;2022-09-09T17:11:18;6.93;;;0.97;;
1296;SDS011;641;48.492;9.184;2022-09-09T17:13:44;6.73;;;0.60;;
1296;SDS011;641;48.492;9.184;2022-09-09T17:16:12;8.67;;;1.27;;
1296;SDS011;641;48.492;9.184;2022-09-09T17:18:39;6.60;;;0.83;;
1296;SDS011;641;48.492;9.184;2022-09-09T17:21:15;8.47;;;0.87;;
1296;SDS011;641;48.492;9.184;2022-09-09T17:23:43;6.67;;;1.00;;
1296;SDS011;641;48.492;9.184;2022-09-09T17:26:11;5.70;;;0.60;;
1296;SDS011;641;48.492;9.184;2022-09-09T17:28:39;8.90;;;1.07;;
1296;SDS011;641;48.492;9.184;2022-09-09T17:31:07;7.97;;;0.80;;
1296;SDS011;641;48.492;9.184;2022-09-09T17:33:35;7.20;;;1.83;;
1296;SDS011;641;48.492;9.184;2022-09-09T17:36:09;5.97;;;0.67;;
1296;SDS011;641;48.492;9.184;2022-09-09T17:38:42;6.73;;;0.50;;
1296;SDS011;641;48.492;9.184;2022-09-09T17:41:09;7.07;;;0.90;;
1296;SDS011;641;48.492;9.184;2022-09-09T17:43:36;5.90;;;0.60;;
1296;SDS011;641;48.492;9.184;2022-09-09T17:46:10;6.00;;;0.70;;
1296;SDS011;641;48.492;9.184;2022-09-09T17:48:37;9.60;;;1.40;;
1296;SDS011;641;48.492;9.184;2022-09-09T17:51:04;9.53;;;1.00;;
1296;SDS011;641;48.492;9.184;2022-09-09T17:53:36;5.97;;;0.80;;
1296;SDS011;641;48.492;9.184;2022-09-09T17:56:06;6.60;;;1.03;;
1296;SDS011;641;48.492;9.184;2022-09-09T17:58:33;6.70;;;0.80;;
1296;SDS011;641;48.492;9.184;2022-09-09T18:01:04;7.17;;;0.90;;